Time;durP1;ratioP1;P1;durP2;ratioP2;P2;SDS_P1;SDS_P2;PMS_P1;PMS_P2;Temp;Humidity;BMP_temperature;BMP_pressure;BME280_temperature;BME280_humidity;BME280_pressure;Samples;Min_cycle;Max_cycle;Signal;HPM_P1;HPM_P2
2022/07/27 00:00:59;;;;;;;5.85;2.40;;;;;;;16.76;67.34;101882.34;5093892;28;20052;-54
2022/07/27 00:03:27;;;;;;;7.18;2.30;;;;;;;16.78;67.51;101886.50;5088417;28;20552;-55
2022/07/27 00:05:54;;;;;;;5.57;2.38;;;;;;;16.79;67.14;101896.41;5094588;28;20494;-52
2022/07/27 00:08:22;;;;;;;5.30;2.35;;;;;;;16.79;67.12;101887.34;5093829;28;20396;-52
2022/07/27 00:10:51;;;;;;;7.03;2.47;;;;;;;16.76;67.61;101882.34;5095251;28;20044;-54
2022/07/27 00:13:19;;;;;;;9.13;2.80;;;;;;;16.74;67.34;101885.41;5090952;28;20036;-54
2022/07/27 00:15:47;;;;;;;6.00;2.63;;;;;;;16.73;67.75;101885.69;5092851;28;20036;-53
2022/07/27 00:18:14;;;;;;;7.80;2.47;;;;;;;16.68;68.08;101893.97;5095200;28;20040;-54
2022/07/27 00:20:42;;;;;;;6.32;2.30;;;;;;;16.65;67.96;101886.28;5094738;28;20032;-54
2022/07/27 00:23:09;;;;;;;7.25;3.00;;;;;;;16.63;68.13;101892.06;5093669;28;20498;-51
2022/07/27 00:25:37;;;;;;;7.65;2.63;;;;;;;16.63;68.00;101894.00;5088066;28;20039;-52
2022/07/27 00:28:05;;;;;;;6.55;2.40;;;;;;;16.61;68.33;101892.34;5099992;28;20036;-52
2022/07/27 00:30:33;;;;;;;9.50;2.40;;;;;;;16.61;68.20;101897.84;5103309;28;20077;-50
2022/07/27 00:33:01;;;;;;;8.88;3.05;;;;;;;16.63;68.19;101889.31;5094860;28;20036;-54
2022/07/27 00:35:29;;;;;;;6.05;2.47;;;;;;;16.61;68.33;101881.31;5083130;28;20123;-56
2022/07/27 00:37:56;;;;;;;7.18;2.60;;;;;;;16.60;68.36;101884.38;5081205;28;20124;-54
2022/07/27 00:40:25;;;;;;;6.45;2.33;;;;;;;16.63;67.93;101885.75;5094837;28;20387;-53
2022/07/27 00:42:53;;;;;;;7.13;2.53;;;;;;;16.65;68.53;101886.28;5094715;28;20509;-55
2022/07/27 00:45:20;;;;;;;7.18;2.60;;;;;;;16.65;68.18;101891.78;5092460;28;20040;-55
2022/07/27 00:47:48;;;;;;;7.32;2.50;;;;;;;16.60;68.06;101887.13;5092595;28;20044;-54
2022/07/27 00:50:21;;;;;;;7.32;2.65;;;;;;;16.55;68.52;101879.72;5080785;28;20036;-52
2022/07/27 00:52:49;;;;;;;7.57;2.20;;;;;;;16.51;68.53;101883.31;5092824;28;20055;-57
2022/07/27 00:55:16;;;;;;;6.03;2.17;;;;;;;16.48;68.58;101879.22;5089765;28;20036;-56
2022/07/27 00:57:44;;;;;;;7.93;2.63;;;;;;;16.50;68.74;101885.25;5093646;28;20036;-58
2022/07/27 01:00:26;;;;;;;8.18;2.70;;;;;;;16.49;68.79;101883.59;5088043;28;20638;-56
2022/07/27 01:02:54;;;;;;;6.50;2.65;;;;;;;16.48;68.81;101886.63;5084654;28;20442;-58
2022/07/27 01:05:24;;;;;;;7.70;2.33;;;;;;;16.44;68.86;101886.38;5091911;28;20544;-53
2022/07/27 01:08:03;;;;;;;6.85;2.53;;;;;;;16.43;68.74;101884.72;5092854;28;20097;-52
2022/07/27 01:10:31;;;;;;;6.35;2.42;;;;;;;16.44;68.68;101885.53;5081377;28;20395;-56
2022/07/27 01:12:59;;;;;;;7.10;2.47;;;;;;;16.39;68.96;101886.38;5091181;28;20390;-55
2022/07/27 01:15:26;;;;;;;8.50;2.70;;;;;;;16.33;69.15;101896.59;5084837;28;20040;-54
2022/07/27 01:17:54;;;;;;;5.18;2.20;;;;;;;16.34;69.39;101884.47;5088609;28;20037;-52
2022/07/27 01:20:22;;;;;;;7.03;2.50;;;;;;;16.35;69.29;101888.03;5078973;28;20050;-55
2022/07/27 01:22:49;;;;;;;6.13;2.25;;;;;;;16.36;69.38;101884.22;5093838;28;20048;-55
2022/07/27 01:25:17;;;;;;;6.53;2.50;;;;;;;16.34;69.00;101892.72;5082193;28;20044;-54
2022/07/27 01:27:44;;;;;;;8.82;2.55;;;;;;;16.33;69.54;101891.09;5096184;28;20043;-52
2022/07/27 01:30:29;;;;;;;8.52;2.53;;;;;;;16.30;69.14;101885.31;5099921;28;20043;-54
2022/07/27 01:33:05;;;;;;;6.45;2.20;;;;;;;16.28;69.24;101893.03;5089761;28;20044;-55
2022/07/27 01:35:33;;;;;;;8.88;2.65;;;;;;;16.27;69.96;101886.69;5089320;28;20040;-57
2022/07/27 01:38:00;;;;;;;10.00;2.70;;;;;;;16.27;69.75;101889.44;5086616;28;20044;-54
2022/07/27 01:40:28;;;;;;;7.00;2.60;;;;;;;16.25;69.62;101888.91;5089238;28;20056;-57
2022/07/27 01:42:56;;;;;;;6.03;2.53;;;;;;;16.26;69.75;101886.97;5093490;28;20056;-55
2022/07/27 01:45:23;;;;;;;4.70;2.35;;;;;;;16.26;69.86;101881.47;5090166;28;20051;-56
2022/07/27 01:47:51;;;;;;;6.93;2.88;;;;;;;16.27;69.72;101880.38;5086248;28;20406;-55
2022/07/27 01:50:19;;;;;;;9.63;2.90;;;;;;;16.26;69.79;101878.72;5079463;28;20040;-50
2022/07/27 01:52:46;;;;;;;7.35;2.80;;;;;;;16.23;69.68;101882.03;5085860;28;20126;-54
2022/07/27 01:55:14;;;;;;;7.97;2.38;;;;;;;16.18;69.73;101878.19;5091155;28;20383;-53
2022/07/27 01:57:42;;;;;;;5.75;2.53;;;;;;;16.15;70.06;101878.75;5086614;28;20051;-54
2022/07/27 02:00:11;;;;;;;8.93;2.67;;;;;;;16.12;69.79;101873.84;5090714;28;20036;-55
2022/07/27 02:02:40;;;;;;;5.88;2.40;;;;;;;16.12;70.23;101875.75;5090488;28;20040;-52
2022/07/27 02:05:10;;;;;;;7.45;2.38;;;;;;;16.12;70.28;101873.84;5088184;28;20044;-53
2022/07/27 02:07:40;;;;;;;4.85;2.33;;;;;;;16.10;70.04;101881.53;5088190;28;20579;-51
2022/07/27 02:10:08;;;;;;;10.70;2.83;;;;;;;16.10;70.39;101877.97;5080461;28;20036;-52
2022/07/27 02:12:36;;;;;;;7.30;2.65;;;;;;;16.06;70.35;101876.88;5091339;28;20394;-54
2022/07/27 02:15:11;;;;;;;11.20;2.83;;;;;;;16.02;70.63;101873.88;5079797;28;20513;-52
2022/07/27 02:17:43;;;;;;;6.93;2.80;;;;;;;15.96;71.11;101870.28;5091989;28;20051;-56
2022/07/27 02:20:14;;;;;;;6.68;2.30;;;;;;;15.96;71.12;101872.22;5093089;28;20454;-54
2022/07/27 02:22:43;;;;;;;6.30;2.53;;;;;;;15.96;71.08;101873.03;5079653;28;20041;-54
2022/07/27 02:25:12;;;;;;;5.90;2.50;;;;;;;15.94;71.05;101866.19;5093071;28;20071;-57
2022/07/27 02:27:41;;;;;;;4.28;2.28;;;;;;;15.96;71.21;101870.28;5090795;28;20050;-51
2022/07/27 02:30:10;;;;;;;7.68;2.70;;;;;;;15.95;70.78;101867.84;5089403;28;20066;-52
2022/07/27 02:32:39;;;;;;;7.60;2.22;;;;;;;15.94;71.37;101866.19;5090438;28;20044;-52
2022/07/27 02:35:11;;;;;;;9.13;2.67;;;;;;;15.92;71.28;101869.22;5083553;28;20037;-57
2022/07/27 02:37:47;;;;;;;8.50;2.50;;;;;;;15.88;71.13;101867.31;5087661;28;20048;-54
2022/07/27 02:40:16;;;;;;;6.20;2.40;;;;;;;15.82;71.69;101860.97;5092060;28;20483;-54
2022/07/27 02:42:45;;;;;;;6.57;2.58;;;;;;;15.74;72.00;101859.63;5080140;28;20143;-52
2022/07/27 02:45:16;;;;;;;6.47;2.58;;;;;;;15.74;72.40;101862.38;5105979;28;20040;-56
2022/07/27 02:47:44;;;;;;;6.28;2.50;;;;;;;15.72;72.36;101859.06;5080090;28;20116;-54
2022/07/27 02:50:12;;;;;;;9.27;2.60;;;;;;;15.69;72.21;101869.78;5093213;28;20047;-53
2022/07/27 02:52:40;;;;;;;6.50;2.50;;;;;;;15.64;72.91;101862.38;5093763;28;20044;-54
2022/07/27 02:55:08;;;;;;;10.77;2.63;;;;;;;15.62;72.44;101869.22;5094135;28;20044;-52
2022/07/27 02:57:39;;;;;;;7.75;2.90;;;;;;;15.62;72.89;101863.75;5095639;28;20456;-52
2022/07/27 03:00:11;;;;;;;12.68;2.92;;;;;;;15.60;72.76;101855.75;5095233;28;20044;-53
2022/07/27 03:02:39;;;;;;;9.82;2.55;;;;;;;15.56;73.27;101860.16;5094581;28;20036;-54
2022/07/27 03:05:08;;;;;;;8.50;2.50;;;;;;;15.56;73.04;101862.91;5084740;28;20042;-53
2022/07/27 03:07:35;;;;;;;8.70;2.67;;;;;;;15.54;73.31;101856.88;5096328;28;20048;-56
2022/07/27 03:10:03;;;;;;;9.05;2.70;;;;;;;15.51;73.26;101857.41;5096665;28;20086;-53
2022/07/27 03:12:31;;;;;;;6.65;2.70;;;;;;;15.50;73.43;101862.09;5089229;28;20068;-55
2022/07/27 03:14:58;;;;;;;8.25;2.65;;;;;;;15.53;73.43;101863.47;5092200;28;20040;-52
2022/07/27 03:17:26;;;;;;;6.30;2.53;;;;;;;15.55;73.35;101864.00;5095240;28;20051;-52
2022/07/27 03:19:54;;;;;;;5.38;2.42;;;;;;;15.56;73.51;101860.16;5096293;28;20036;-52
2022/07/27 03:22:21;;;;;;;9.65;2.95;;;;;;;15.57;73.30;101861.00;5095192;28;20040;-53
2022/07/27 03:24:49;;;;;;;7.22;2.50;;;;;;;15.59;73.37;101858.81;5090859;28;20081;-54
2022/07/27 03:27:17;;;;;;;6.97;2.70;;;;;;;15.62;73.13;101867.31;5096008;28;20036;-52
2022/07/27 03:29:44;;;;;;;6.20;2.20;;;;;;;15.66;73.08;101870.34;5096507;28;20044;-52
2022/07/27 03:32:12;;;;;;;5.38;2.47;;;;;;;15.62;73.32;101872.81;5097038;28;20043;-53
2022/07/27 03:34:39;;;;;;;7.30;2.70;;;;;;;15.57;73.03;101864.56;5086691;28;20398;-56
2022/07/27 03:37:07;;;;;;;8.02;2.40;;;;;;;15.55;73.25;101864.84;5106976;28;20376;-51
2022/07/27 03:39:35;;;;;;;5.68;2.50;;;;;;;15.54;73.47;101867.88;5096756;28;20398;-51
2022/07/27 03:42:03;;;;;;;6.72;3.05;;;;;;;15.54;73.55;101862.38;5095679;28;20067;-55
2022/07/27 03:44:30;;;;;;;5.90;2.47;;;;;;;15.52;73.37;101870.06;5088425;28;20036;-53
2022/07/27 03:46:58;;;;;;;8.32;2.67;;;;;;;15.48;73.40;101868.97;5095257;28;20411;-58
2022/07/27 03:49:25;;;;;;;6.03;2.65;;;;;;;15.46;73.87;101871.16;5091051;28;20044;-57
2022/07/27 03:51:53;;;;;;;8.55;3.15;;;;;;;15.42;74.01;101875.56;5090587;28;20119;-53
2022/07/27 03:54:21;;;;;;;7.50;2.83;;;;;;;15.40;73.92;101883.25;5090894;28;20101;-57
2022/07/27 03:56:48;;;;;;;7.30;2.65;;;;;;;15.39;73.94;101874.16;5094788;28;20051;-52
2022/07/27 03:59:16;;;;;;;8.60;2.70;;;;;;;15.38;74.07;101879.97;5095785;28;20047;-55
2022/07/27 04:01:44;;;;;;;6.07;2.67;;;;;;;15.39;73.74;101876.09;5091842;28;20044;-53
2022/07/27 04:04:12;;;;;;;5.57;2.45;;;;;;;15.36;74.13;101879.41;5080935;28;20409;-54
2022/07/27 04:06:40;;;;;;;6.40;2.80;;;;;;;15.36;73.86;101873.91;5087222;28;20040;-53
2022/07/27 04:09:08;;;;;;;7.00;2.70;;;;;;;15.36;74.05;101871.16;5093656;28;20513;-55
2022/07/27 04:11:36;;;;;;;8.60;3.00;;;;;;;15.38;73.81;101875.28;5092771;28;20036;-55
2022/07/27 04:14:17;;;;;;;6.50;2.67;;;;;;;15.38;73.97;101879.97;5091480;28;20046;-54
2022/07/27 04:16:46;;;;;;;6.40;2.83;;;;;;;15.40;73.77;101884.06;5090002;28;20422;-55
2022/07/27 04:19:13;;;;;;;7.18;2.70;;;;;;;15.39;74.01;101884.34;5094998;28;20036;-56
2022/07/27 04:21:42;;;;;;;8.35;2.83;;;;;;;15.34;73.85;101880.50;5094979;28;20413;-53
2022/07/27 04:24:09;;;;;;;5.75;2.40;;;;;;;15.33;74.12;101883.53;5092754;28;20050;-52
2022/07/27 04:26:37;;;;;;;5.32;2.50;;;;;;;15.39;74.40;101882.41;5092226;28;20093;-48
2022/07/27 04:29:05;;;;;;;5.55;2.40;;;;;;;15.43;73.92;101880.78;5082234;28;20050;-48
2022/07/27 04:31:33;;;;;;;5.22;2.60;;;;;;;15.42;73.89;101886.56;5081320;28;20051;-47
2022/07/27 04:34:00;;;;;;;6.30;2.53;;;;;;;15.40;73.75;101889.56;5094966;28;20044;-48
2022/07/27 04:36:28;;;;;;;6.18;2.72;;;;;;;15.34;73.96;101890.66;5100775;28;20127;-51
2022/07/27 04:38:58;;;;;;;6.43;2.65;;;;;;;15.25;74.34;101882.16;5093683;28;20044;-51
2022/07/27 04:41:26;;;;;;;4.88;2.60;;;;;;;15.23;74.35;101895.31;5076266;28;20055;-53
2022/07/27 04:43:57;;;;;;;6.78;2.70;;;;;;;15.18;74.82;101897.25;5085906;28;20052;-51
2022/07/27 04:46:28;;;;;;;10.25;3.47;;;;;;;15.18;74.64;101903.56;5094373;28;20051;-53
2022/07/27 04:48:56;;;;;;;6.63;3.00;;;;;;;15.06;75.51;101905.75;5092995;28;20039;-50
2022/07/27 04:51:24;;;;;;;7.20;3.38;;;;;;;14.90;75.79;101902.94;5093360;28;20036;-49
2022/07/27 04:53:52;;;;;;;7.03;2.67;;;;;;;14.80;76.68;101902.91;5092783;28;20438;-51
2022/07/27 04:56:26;;;;;;;8.98;3.15;;;;;;;14.77;77.16;101899.88;5094485;28;20063;-50
2022/07/27 04:58:54;;;;;;;6.20;2.55;;;;;;;14.87;77.04;101903.50;5086057;28;20473;-47
2022/07/27 05:01:22;;;;;;;6.47;3.20;;;;;;;14.98;76.66;101898.03;5091927;28;20118;-48
2022/07/27 05:03:50;;;;;;;7.90;3.08;;;;;;;14.98;76.56;101904.31;5079798;28;20043;-48
2022/07/27 05:06:18;;;;;;;5.65;2.97;;;;;;;15.02;76.74;101904.63;5075372;28;20044;-49
2022/07/27 05:08:46;;;;;;;7.50;3.00;;;;;;;15.06;76.44;101905.75;5084310;28;20050;-50
2022/07/27 05:11:13;;;;;;;8.05;2.80;;;;;;;15.10;76.25;101906.81;5092261;28;20063;-48
2022/07/27 05:13:41;;;;;;;8.10;3.40;;;;;;;15.07;76.22;101910.13;5085114;28;20040;-46
2022/07/27 05:16:10;;;;;;;11.60;3.50;;;;;;;15.01;76.72;101908.44;5093736;28;20040;-44
2022/07/27 05:18:38;;;;;;;7.72;3.28;;;;;;;14.91;77.21;101915.59;5081825;28;20043;-45
2022/07/27 05:21:07;;;;;;;9.88;3.50;;;;;;;14.88;77.65;101916.09;5082891;28;20556;-48
2022/07/27 05:23:35;;;;;;;10.75;3.17;;;;;;;14.68;78.77;101927.03;5083589;28;20040;-48
2022/07/27 05:26:03;;;;;;;7.43;3.30;;;;;;;14.75;79.18;101921.28;5085107;28;20040;-48
2022/07/27 05:28:31;;;;;;;6.35;2.72;;;;;;;14.89;78.89;101928.75;4372772;28;10000271;-49
2022/07/27 05:30:59;;;;;;;7.10;2.88;;;;;;;14.99;78.50;101921.63;5078969;28;20056;-48
2022/07/27 05:33:27;;;;;;;5.97;2.95;;;;;;;15.09;78.24;101922.47;5089100;28;20056;-49
2022/07/27 05:35:57;;;;;;;8.15;3.00;;;;;;;15.16;78.07;101915.91;5090381;28;20040;-46
2022/07/27 05:38:25;;;;;;;9.18;3.45;;;;;;;15.22;77.99;101920.28;5086322;28;20048;-46
2022/07/27 05:40:52;;;;;;;7.68;3.20;;;;;;;15.23;77.70;101928.28;5086120;28;20105;-52
2022/07/27 05:43:20;;;;;;;7.57;3.25;;;;;;;15.18;78.52;101936.50;5072208;28;20051;-47
2022/07/27 05:45:47;;;;;;;6.90;2.95;;;;;;;15.17;78.72;101929.34;5090409;28;20047;-46
2022/07/27 05:48:15;;;;;;;8.88;3.30;;;;;;;15.22;78.44;101926.59;5083691;28;20044;-46
2022/07/27 05:50:43;;;;;;;8.23;3.22;;;;;;;15.25;78.08;101926.09;5086156;28;20048;-50
2022/07/27 05:53:11;;;;;;;5.45;2.90;;;;;;;15.24;78.41;101929.09;5085072;28;20051;-48
2022/07/27 05:55:39;;;;;;;7.85;3.15;;;;;;;15.26;78.63;101927.72;5088869;28;20085;-58
2022/07/27 05:58:26;;;;;;;;;;;;;;;15.30;78.59;101933.50;5091954;28;20036;-54
2022/07/27 06:00:53;;;;;;;7.63;3.20;;;;;;;15.30;78.36;101934.31;5092706;28;20028;-56
2022/07/27 06:03:22;;;;;;;8.75;2.90;;;;;;;15.24;77.93;101932.66;5093393;28;20040;-57
2022/07/27 06:05:50;;;;;;;8.77;3.10;;;;;;;15.25;78.14;101941.72;5093183;28;20040;-56
2022/07/27 06:08:17;;;;;;;7.75;3.20;;;;;;;15.23;77.86;101944.75;5090626;28;20055;-52
2022/07/27 06:10:45;;;;;;;8.98;3.00;;;;;;;15.24;78.31;101946.38;5089326;28;20127;-54
2022/07/27 06:13:12;;;;;;;9.40;3.20;;;;;;;15.24;77.69;101946.38;5086816;28;20044;-49
2022/07/27 06:15:40;;;;;;;10.38;3.08;;;;;;;15.23;77.61;101942.00;5092335;28;20097;-52
2022/07/27 06:18:15;;;;;;;7.50;3.13;;;;;;;15.21;77.58;101944.19;5087974;28;20047;-49
2022/07/27 06:20:44;;;;;;;7.88;3.10;;;;;;;15.24;77.80;101949.13;5091265;28;20036;-51
2022/07/27 06:23:12;;;;;;;8.38;3.15;;;;;;;15.24;77.96;101945.56;5089796;28;20040;-50
2022/07/27 06:25:39;;;;;;;8.10;3.20;;;;;;;15.29;78.28;101949.13;5095312;28;20044;-49
2022/07/27 06:28:08;;;;;;;11.55;3.15;;;;;;;15.29;78.89;101949.13;5088997;28;20040;-46
2022/07/27 06:30:35;;;;;;;9.35;3.35;;;;;;;15.29;80.10;101956.56;5093800;28;20044;-47
2022/07/27 06:33:03;;;;;;;8.40;3.47;;;;;;;15.32;80.17;101953.25;5082942;28;20043;-48
2022/07/27 06:35:33;;;;;;;10.60;3.20;;;;;;;15.32;79.28;101953.25;5088777;28;20482;-55
2022/07/27 06:38:01;;;;;;;13.52;3.22;;;;;;;15.30;79.08;101953.53;5095454;28;20553;-50
2022/07/27 06:40:30;;;;;;;10.30;3.45;;;;;;;15.29;79.36;101953.81;5094182;28;20074;-51
2022/07/27 06:42:58;;;;;;;9.80;2.92;;;;;;;15.31;79.17;101955.19;5087824;28;20064;-50
2022/07/27 06:45:27;;;;;;;8.57;3.15;;;;;;;15.37;78.64;101961.53;5092326;28;20044;-49
2022/07/27 06:47:54;;;;;;;9.02;3.40;;;;;;;15.47;78.32;101960.72;5094417;28;20036;-49
2022/07/27 06:50:22;;;;;;;8.48;2.90;;;;;;;15.50;77.75;101955.47;5094217;28;20055;-53
2022/07/27 06:52:49;;;;;;;7.32;2.90;;;;;;;15.50;77.47;101963.72;5092873;28;20044;-50
2022/07/27 06:55:17;;;;;;;7.60;2.88;;;;;;;15.54;77.44;101961.28;5081258;28;20263;-50
2022/07/27 06:57:45;;;;;;;9.70;2.80;;;;;;;15.56;76.88;101959.06;5087791;28;20127;-50
2022/07/27 07:00:13;;;;;;;5.97;2.63;;;;;;;15.61;77.25;101967.31;5093835;28;20040;-52
2022/07/27 07:02:56;;;;;;;5.47;2.40;;;;;;;15.73;76.90;101959.66;5093784;28;20127;-52
2022/07/27 07:05:24;;;;;;;8.00;2.58;;;;;;;15.78;76.77;101958.84;5092990;28;20032;-55
2022/07/27 07:07:52;;;;;;;5.90;2.22;;;;;;;15.77;76.24;101957.16;5092383;28;20055;-53
2022/07/27 07:10:20;;;;;;;6.05;2.50;;;;;;;15.74;75.05;101955.78;5096604;28;20494;-55
2022/07/27 07:12:54;;;;;;;9.25;2.50;;;;;;;15.72;75.86;101957.19;5087533;28;20058;-55
2022/07/27 07:15:23;;;;;;;7.35;2.13;;;;;;;15.79;75.51;101965.16;5086510;28;20567;-53
2022/07/27 07:17:53;;;;;;;6.93;2.55;;;;;;;15.86;74.82;101962.94;5091670;28;20094;-54
2022/07/27 07:20:21;;;;;;;5.80;1.92;;;;;;;15.88;75.10;101960.75;5096317;28;20042;-58
2022/07/27 07:22:49;;;;;;;9.68;2.58;;;;;;;15.91;74.50;101969.25;5093610;28;20484;-54
2022/07/27 07:25:16;;;;;;;6.90;2.30;;;;;;;15.95;74.50;101967.63;5096188;28;20032;-52
2022/07/27 07:27:44;;;;;;;9.65;3.00;;;;;;;15.92;74.96;101967.31;5086750;28;20028;-53
2022/07/27 07:30:12;;;;;;;8.20;2.50;;;;;;;15.92;75.07;101973.66;5075863;28;20487;-50
2022/07/27 07:32:40;;;;;;;4.45;2.20;;;;;;;15.98;75.35;101963.50;5092153;28;20459;-56
2022/07/27 07:35:08;;;;;;;5.78;2.45;;;;;;;16.09;73.49;101969.78;5086180;28;20054;-55
2022/07/27 07:37:36;;;;;;;10.15;2.97;;;;;;;16.18;72.57;101971.69;5083998;28;20499;-52
2022/07/27 07:40:05;;;;;;;7.55;2.67;;;;;;;16.18;72.25;101977.19;5079104;28;20049;-55
2022/07/27 07:42:55;;;;;;;7.45;2.50;;;;;;;16.23;71.14;101978.28;5085459;28;20101;-55
2022/07/27 07:45:24;;;;;;;9.30;2.10;;;;;;;16.25;70.92;101971.41;5090485;28;20126;-55
2022/07/27 07:47:52;;;;;;;4.20;2.00;;;;;;;16.29;71.33;101982.69;5082882;28;20132;-55
2022/07/27 07:50:20;;;;;;;8.63;2.58;;;;;;;16.33;70.10;101983.75;5084212;28;20052;-52
2022/07/27 07:52:52;;;;;;;7.22;2.35;;;;;;;16.30;70.80;101981.56;5082121;28;20415;-54
2022/07/27 07:55:21;;;;;;;8.52;2.40;;;;;;;16.28;69.40;101992.03;5084611;28;20040;-55
2022/07/27 07:57:49;;;;;;;6.65;2.17;;;;;;;16.28;68.50;101987.34;5077891;28;20040;-54
2022/07/27 08:00:19;;;;;;;5.20;1.90;;;;;;;16.35;67.61;101993.38;5077510;28;20048;-54
2022/07/27 08:02:49;;;;;;;8.38;2.42;;;;;;;16.35;65.50;101998.88;5083133;28;20041;-52
2022/07/27 08:05:16;;;;;;;4.70;1.77;;;;;;;16.40;64.30;101992.56;5088482;28;20036;-51
2022/07/27 08:07:44;;;;;;;9.23;1.90;;;;;;;16.40;63.63;101989.81;5084714;28;20052;-51
2022/07/27 08:10:14;;;;;;;7.00;2.08;;;;;;;16.47;64.90;101995.03;5083953;28;20040;-53
2022/07/27 08:12:45;;;;;;;8.45;2.00;;;;;;;16.51;64.61;101994.19;5079582;28;20041;-52
2022/07/27 08:15:14;;;;;;;6.13;1.95;;;;;;;16.50;62.98;101998.06;5090303;28;20399;-52
2022/07/27 08:17:42;;;;;;;5.75;1.90;;;;;;;16.50;62.96;101994.44;5086627;28;20043;-53
2022/07/27 08:20:11;;;;;;;6.20;2.03;;;;;;;16.47;62.85;101990.34;5057169;28;20047;-52
2022/07/27 08:22:38;;;;;;;6.65;2.13;;;;;;;16.51;63.10;101991.44;5078017;28;20051;-50
2022/07/27 08:25:07;;;;;;;4.57;1.73;;;;;;;16.56;63.27;101988.66;5090754;28;20044;-54
2022/07/27 08:27:35;;;;;;;5.68;1.83;;;;;;;16.61;62.56;102002.41;5086979;28;20033;-52
2022/07/27 08:30:09;;;;;;;6.70;2.17;;;;;;;16.64;61.10;102000.19;5094033;28;20036;-53
2022/07/27 08:32:57;;;;;;;6.28;2.30;;;;;;;16.61;60.97;101991.41;5083466;28;20053;-50
2022/07/27 08:35:25;;;;;;;6.55;2.00;;;;;;;16.65;61.07;101996.34;5092570;28;20044;-51
2022/07/27 08:37:53;;;;;;;4.82;1.60;;;;;;;16.70;61.59;101994.41;5085726;28;20486;-54
2022/07/27 08:40:21;;;;;;;5.95;1.70;;;;;;;16.76;59.16;101990.53;5094029;28;20127;-54
2022/07/27 08:43:09;;;;;;;8.75;2.10;;;;;;;16.82;58.96;101992.19;5087570;28;20043;-50
2022/07/27 08:45:37;;;;;;;5.53;1.48;;;;;;;16.83;58.47;101988.31;5085333;28;20131;-49
2022/07/27 08:48:05;;;;;;;5.57;1.55;;;;;;;16.95;58.76;101982.47;5080085;28;20147;-50
2022/07/27 08:50:34;;;;;;;6.30;1.83;;;;;;;17.01;59.07;101984.13;5087719;28;20415;-52
2022/07/27 08:53:05;;;;;;;7.18;2.10;;;;;;;17.11;58.77;101983.25;5090106;28;20055;-52
2022/07/27 08:55:42;;;;;;;7.68;2.08;;;;;;;17.11;58.51;101985.19;5085416;28;20371;-50
2022/07/27 08:58:11;;;;;;;4.80;1.75;;;;;;;17.08;58.13;101981.06;5088347;28;20550;-54
2022/07/27 09:00:43;;;;;;;6.32;1.98;;;;;;;17.07;58.27;101970.31;5083556;28;20069;-53
2022/07/27 09:03:12;;;;;;;2.22;1.27;;;;;;;17.13;59.46;101974.69;5083549;28;20401;-56
2022/07/27 09:05:47;;;;;;;9.48;2.40;;;;;;;17.19;57.19;101979.06;5091825;28;20394;-55
2022/07/27 09:08:20;;;;;;;5.78;1.60;;;;;;;17.22;58.28;101972.97;5080312;28;20049;-53
2022/07/27 09:10:48;;;;;;;2.97;1.48;;;;;;;17.26;58.70;101971.31;5082525;28;20040;-53
2022/07/27 09:13:25;;;;;;;5.90;1.90;;;;;;;17.28;58.87;101969.09;5091539;28;20439;-53
2022/07/27 09:15:55;;;;;;;3.20;1.75;;;;;;;17.29;59.68;101975.41;4382541;28;10000834;-51
2022/07/27 09:18:42;;;;;;;7.78;1.88;;;;;;;17.30;56.96;101986.16;5089041;28;20506;-52
2022/07/27 09:21:16;;;;;;;7.05;2.05;;;;;;;17.33;57.61;101985.59;5083097;28;20040;-50
2022/07/27 09:23:49;;;;;;;5.75;1.88;;;;;;;17.34;57.36;101987.25;5079249;28;20111;-54
2022/07/27 09:26:23;;;;;;;5.72;2.00;;;;;;;17.40;56.25;101993.53;5075445;28;20047;-51
2022/07/27 09:29:10;;;;;;;7.13;2.00;;;;;;;17.42;56.51;101989.38;5088798;28;20036;-50
2022/07/27 09:31:46;;;;;;;4.97;2.15;;;;;;;17.43;56.85;101985.50;5077064;28;20398;-53
2022/07/27 09:34:30;;;;;;;6.88;2.00;;;;;;;17.41;53.93;101982.25;5083862;28;20068;-52
2022/07/27 09:36:58;;;;;;;4.50;1.75;;;;;;;17.43;53.95;101990.19;5086276;28;20047;-54
2022/07/27 09:39:28;;;;;;;10.25;1.88;;;;;;;17.48;54.70;101986.59;5082015;28;20047;-51
2022/07/27 09:42:01;;;;;;;3.90;1.80;;;;;;;17.51;53.78;101997.03;5082729;28;20494;-53
2022/07/27 09:44:38;;;;;;;7.63;2.15;;;;;;;17.51;53.77;101986.00;5087852;28;20056;-54
2022/07/27 09:47:39;;;;;;;5.05;1.67;;;;;;;17.54;53.74;101980.75;5084782;28;20044;-53
2022/07/27 09:50:19;;;;;;;5.32;1.60;;;;;;;17.61;54.21;101974.94;5067122;28;20052;-54
2022/07/27 09:52:47;;;;;;;7.22;2.10;;;;;;;17.70;54.04;101984.22;5079920;28;20055;-53
2022/07/27 09:55:19;;;;;;;4.00;1.70;;;;;;;17.78;53.11;101989.13;5084773;28;20539;-54
2022/07/27 09:57:55;;;;;;;5.13;2.33;;;;;;;17.83;52.92;101978.09;5079852;28;20495;-55
2022/07/27 10:00:24;;;;;;;6.53;1.98;;;;;;;17.92;52.72;101988.47;5080998;28;20046;-54
2022/07/27 10:02:53;;;;;;;7.25;2.08;;;;;;;17.93;53.08;101987.38;5086431;28;20110;-49
2022/07/27 10:05:21;;;;;;;5.82;1.77;;;;;;;17.88;52.62;101991.00;5077040;28;20044;-48
2022/07/27 10:07:51;;;;;;;7.70;2.28;;;;;;;17.84;52.77;101990.75;5079753;28;20051;-52
2022/07/27 10:10:21;;;;;;;5.95;1.95;;;;;;;17.81;52.72;101985.00;5077059;28;20083;-49
2022/07/27 10:12:49;;;;;;;6.45;2.13;;;;;;;17.81;52.88;101988.56;5078835;28;20083;-48
2022/07/27 10:15:23;;;;;;;6.95;2.03;;;;;;;17.87;52.67;101984.66;5081575;28;20044;-50
2022/07/27 10:17:58;;;;;;;3.25;1.52;;;;;;;17.86;52.29;101983.00;5083187;28;20040;-54
2022/07/27 10:20:29;;;;;;;4.20;1.80;;;;;;;17.80;52.45;101986.94;5089733;28;20044;-53
2022/07/27 10:22:58;;;;;;;6.47;2.13;;;;;;;17.79;54.03;101981.66;5078025;28;20618;-53
2022/07/27 10:25:27;;;;;;;5.82;1.85;;;;;;;17.80;54.08;101980.56;5082049;28;20055;-53
2022/07/27 10:28:17;;;;;;;8.30;2.20;;;;;;;17.83;52.71;101978.09;5078907;28;20572;-52
2022/07/27 10:30:45;;;;;;;7.38;2.42;;;;;;;17.89;52.01;101976.09;5078357;28;20499;-52
2022/07/27 10:33:54;;;;;;;3.90;1.60;;;;;;;17.98;52.00;101962.50;5072711;28;20506;-52
2022/07/27 10:36:30;;;;;;;4.85;1.90;;;;;;;18.09;51.74;101978.69;5047208;28;20041;-56
2022/07/27 10:39:04;;;;;;;6.78;2.17;;;;;;;18.15;50.97;101965.66;5083584;28;20593;-54
2022/07/27 10:41:33;;;;;;;7.82;2.20;;;;;;;18.13;51.37;101976.16;5086268;28;20048;-57
2022/07/27 10:44:22;;;;;;;4.88;1.90;;;;;;;18.09;50.76;101966.81;5080639;28;20118;-55
2022/07/27 10:46:54;;;;;;;5.32;1.83;;;;;;;18.06;50.68;101959.97;5079936;28;20568;-55
2022/07/27 10:49:33;;;;;;;7.63;1.88;;;;;;;18.14;50.45;101966.78;5088147;28;20207;-55
2022/07/27 10:52:46;;;;;;;4.20;1.75;;;;;;;18.24;50.40;101952.88;5081985;28;20045;-56
2022/07/27 10:55:32;;;;;;;6.38;1.77;;;;;;;18.33;50.66;101946.69;5077043;28;20040;-56
2022/07/27 10:58:09;;;;;;;4.45;1.92;;;;;;;18.30;50.51;101953.63;5086905;28;20040;-53
2022/07/27 11:00:49;;;;;;;4.70;1.88;;;;;;;18.22;50.85;101951.53;5087000;28;20498;-51
2022/07/27 11:03:23;;;;;;;7.75;2.60;;;;;;;18.16;51.31;101948.00;5077785;28;20036;-55
2022/07/27 11:05:54;;;;;;;6.38;2.35;;;;;;;18.17;51.74;101954.34;5073087;28;20048;-55
2022/07/27 11:08:44;;;;;;;6.30;1.98;;;;;;;18.12;52.63;101951.63;5084336;28;20060;-56
2022/07/27 11:11:24;;;;;;;6.75;2.20;;;;;;;18.11;52.40;101950.78;5087608;28;20089;-52
2022/07/27 11:13:54;;;;;;;6.07;2.50;;;;;;;18.08;52.52;101945.84;5085042;28;20032;-55
2022/07/27 11:16:22;;;;;;;7.45;2.45;;;;;;;18.06;53.50;101937.91;5087604;28;20032;-55
2022/07/27 11:18:56;;;;;;;9.82;2.50;;;;;;;18.12;54.23;101948.88;5090313;28;20039;-53
2022/07/27 11:21:27;;;;;;;6.25;1.77;;;;;;;18.23;54.20;101947.63;5077238;28;20051;-53
2022/07/27 11:23:56;;;;;;;7.53;2.35;;;;;;;18.39;53.24;101943.59;5088713;28;20036;-52
2022/07/27 11:26:26;;;;;;;4.60;2.08;;;;;;;18.50;52.53;101947.06;5081283;28;20047;-51
2022/07/27 11:28:54;;;;;;;9.07;2.10;;;;;;;18.50;51.83;101947.06;5081374;28;20043;-54
2022/07/27 11:31:22;;;;;;;5.32;2.33;;;;;;;18.48;52.32;101957.59;5084945;28;20048;-54
2022/07/27 11:34:10;;;;;;;6.30;2.22;;;;;;;18.37;50.99;101956.03;5073997;28;20451;-52
2022/07/27 11:36:39;;;;;;;5.75;2.03;;;;;;;18.26;49.25;101947.06;5091194;28;20063;-52
2022/07/27 11:39:12;;;;;;;4.72;1.77;;;;;;;18.21;49.82;101947.94;5088934;28;20048;-56